createdAt,value
2022-11-15T06:14:28.168Z,9.20
2022-11-15T06:17:13.340Z,8.90
2022-11-15T06:19:58.748Z,8.50
2022-11-15T06:22:44.197Z,8.20
2022-11-15T06:25:30.694Z,7.80
2022-11-15T06:28:16.212Z,7.50
2022-11-15T06:31:06.693Z,7.40
2022-11-15T06:33:51.931Z,7.20
2022-11-15T06:36:37.554Z,7.00
2022-11-15T06:39:22.765Z,7.20
2022-11-15T06:42:10.052Z,7.00
2022-11-15T06:44:55.529Z,6.90
2022-11-15T06:47:48.102Z,6.80
2022-11-15T06:50:33.693Z,6.60
2022-11-15T06:53:19.315Z,6.50
2022-11-15T06:56:06.887Z,6.60
2022-11-15T06:58:52.023Z,6.50
2022-11-15T07:01:37.430Z,6.70
2022-11-15T07:04:23.019Z,6.70
2022-11-15T07:07:08.345Z,6.50
2022-11-15T07:09:53.660Z,6.60
2022-11-15T07:12:38.960Z,6.50
2022-11-15T07:15:26.659Z,6.80
2022-11-15T07:18:12.291Z,6.80
2022-11-15T07:21:02.138Z,6.80
2022-11-15T07:23:47.474Z,6.60
2022-11-15T07:26:32.874Z,6.70
2022-11-15T07:29:18.252Z,6.70
2022-11-15T07:32:03.844Z,6.80
2022-11-15T07:34:49.489Z,6.90
2022-11-15T07:37:34.793Z,7.10
2022-11-15T07:40:20.365Z,7.30
2022-11-15T07:43:09.234Z,7.20
2022-11-15T07:45:59.138Z,7.10
2022-11-15T07:48:45.765Z,7.00
2022-11-15T07:51:31.160Z,7.10
2022-11-15T07:54:16.444Z,7.30
2022-11-15T07:57:06.900Z,7.40
2022-11-15T07:59:53.044Z,7.50
2022-11-15T08:02:38.216Z,7.60
2022-11-15T08:05:23.547Z,7.60
2022-11-15T08:08:10.924Z,7.60
2022-11-15T08:10:58.840Z,7.80
2022-11-15T08:13:43.988Z,7.70
2022-11-15T08:16:29.464Z,7.90
2022-11-15T08:19:15.017Z,7.90
2022-11-15T08:22:00.278Z,7.90
2022-11-15T08:24:45.682Z,7.90
2022-11-15T08:27:31.269Z,8.10
2022-11-15T08:30:16.995Z,8.30
2022-11-15T08:33:02.248Z,8.60
2022-11-15T08:35:47.675Z,8.70
2022-11-15T08:38:33.662Z,8.80
2022-11-15T08:41:36.744Z,9.00
2022-11-15T08:44:22.329Z,9.10
2022-11-15T08:47:08.385Z,9.20
2022-11-15T08:49:54.045Z,9.50
2022-11-15T08:52:39.340Z,9.60
2022-11-15T08:55:25.110Z,9.80
2022-11-15T08:58:10.254Z,9.90
2022-11-15T09:00:56.252Z,10.10
2022-11-15T09:03:42.335Z,10.10
2022-11-15T09:06:28.175Z,10.30
2022-11-15T09:09:13.251Z,10.40
2022-11-15T09:12:02.430Z,10.50
2022-11-15T09:14:47.672Z,10.50
2022-11-15T09:17:33.093Z,10.80
2022-11-15T09:20:18.708Z,11.00
2022-11-15T09:23:05.793Z,11.20
2022-11-15T09:25:51.632Z,11.30
2022-11-15T09:28:37.837Z,11.10
2022-11-15T09:31:23.305Z,11.10
2022-11-15T09:34:08.568Z,11.10
2022-11-15T09:36:53.878Z,11.10
2022-11-15T09:39:39.393Z,11.20
2022-11-15T09:42:32.379Z,11.40
2022-11-15T09:45:33.805Z,11.40
2022-11-15T09:48:24.722Z,11.60
2022-11-15T09:51:50.956Z,11.60
2022-11-15T09:54:52.251Z,11.50
2022-11-15T09:57:42.592Z,11.20
2022-11-15T10:00:46.327Z,11.50
2022-11-15T10:03:21.067Z,11.50
2022-11-15T10:05:49.311Z,11.50
2022-11-15T10:08:31.691Z,11.60
2022-11-15T10:11:35.672Z,11.90
2022-11-15T10:13:51.097Z,12.00
2022-11-15T10:16:17.730Z,12.40
2022-11-15T10:19:04.725Z,12.40
2022-11-15T10:22:13.234Z,12.40
2022-11-15T10:24:43.815Z,12.20
2022-11-15T10:27:14.293Z,12.30
2022-11-15T10:29:49.679Z,12.40
2022-11-15T10:32:21.944Z,12.30
2022-11-15T10:34:50.510Z,12.30
2022-11-15T10:37:31.891Z,12.40
2022-11-15T10:40:25.025Z,12.60
2022-11-15T10:43:09.831Z,12.50
2022-11-15T10:45:37.852Z,12.40
2022-11-15T10:48:13.660Z,12.30
2022-11-15T10:50:45.599Z,12.40
2022-11-15T10:53:21.352Z,12.50
2022-11-15T10:55:50.480Z,12.70
2022-11-15T10:58:44.273Z,12.90
2022-11-15T11:01:13.826Z,12.80
2022-11-15T11:03:42.710Z,12.90
2022-11-15T11:06:12.688Z,12.90
2022-11-15T11:08:40.290Z,12.70
2022-11-15T11:11:08.725Z,12.70
2022-11-15T11:13:38.051Z,12.80
2022-11-15T11:16:15.608Z,13.00
2022-11-15T11:18:53.498Z,12.80
2022-11-15T11:21:44.949Z,12.60
2022-11-15T11:24:30.983Z,12.60
2022-11-15T11:27:14.234Z,12.60
2022-11-15T11:30:18.628Z,12.60
2022-11-15T11:32:58.611Z,12.60
2022-11-15T11:35:44.080Z,12.50
2022-11-15T11:38:50.952Z,12.50
2022-11-15T11:41:55.569Z,12.70
2022-11-15T11:44:44.059Z,12.60
2022-11-15T11:47:25.400Z,12.60
2022-11-15T11:49:53.494Z,12.60
2022-11-15T11:52:31.696Z,12.60
2022-11-15T11:55:01.355Z,12.60
2022-11-15T11:57:48.294Z,12.70
2022-11-15T12:00:23.877Z,12.80
2022-11-15T12:03:27.541Z,12.90
2022-11-15T12:06:05.982Z,13.10
2022-11-15T12:08:52.985Z,13.40
2022-11-15T12:11:30.838Z,13.60
2022-11-15T12:14:01.161Z,13.70
2022-11-15T12:16:30.426Z,14.20
2022-11-15T12:19:03.858Z,16.40
2022-11-15T12:21:33.548Z,18.30
2022-11-15T12:24:06.207Z,19.40
2022-11-15T12:26:41.175Z,19.30
2022-11-15T12:29:21.414Z,18.60
2022-11-15T12:31:53.387Z,18.20
2022-11-15T12:34:23.108Z,17.80
2022-11-15T12:36:51.343Z,17.20
2022-11-15T12:39:18.870Z,16.80
2022-11-15T12:41:57.198Z,16.50
2022-11-15T12:44:33.031Z,16.20
2022-11-15T12:47:03.544Z,15.70
2022-11-15T12:49:30.151Z,15.40
2022-11-15T12:51:59.798Z,15.20
2022-11-15T12:54:28.100Z,15.30
2022-11-15T12:57:03.616Z,15.00
2022-11-15T12:59:59.410Z,14.80
2022-11-15T13:02:28.679Z,14.70
2022-11-15T13:05:16.782Z,14.70
2022-11-15T13:07:43.699Z,14.60
2022-11-15T13:10:13.489Z,14.80
2022-11-15T13:12:46.083Z,14.50
2022-11-15T13:15:12.701Z,14.40
2022-11-15T13:17:46.096Z,14.30
2022-11-15T13:20:15.200Z,14.30
2022-11-15T13:23:02.861Z,14.20
2022-11-15T13:25:48.841Z,14.20
2022-11-15T13:28:15.510Z,14.20
2022-11-15T13:30:50.726Z,14.10
2022-11-15T13:33:18.976Z,13.90
2022-11-15T13:35:53.559Z,13.90
2022-11-15T13:38:35.117Z,13.80
2022-11-15T13:41:18.593Z,13.70
2022-11-15T13:43:45.279Z,13.60
2022-11-15T13:46:15.109Z,13.50
2022-11-15T13:48:43.148Z,13.50
2022-11-15T13:51:25.832Z,13.70
2022-11-15T13:54:16.353Z,13.80
2022-11-15T13:56:48.080Z,13.70
2022-11-15T13:59:22.471Z,13.50
2022-11-15T14:01:50.857Z,13.40
2022-11-15T14:04:21.727Z,13.30
2022-11-15T14:06:51.852Z,13.40
2022-11-15T14:09:39.336Z,13.50
2022-11-15T14:12:30.048Z,13.40
2022-11-15T14:14:58.192Z,13.50
2022-11-15T14:17:30.551Z,13.40
2022-11-15T14:19:58.565Z,13.50
2022-11-15T14:22:27.007Z,13.60
2022-11-15T14:25:16.142Z,13.50
2022-11-15T14:27:45.220Z,13.40
2022-11-15T14:30:16.823Z,13.30
2022-11-15T14:32:49.234Z,13.20
2022-11-15T14:35:19.484Z,13.20
2022-11-15T14:37:46.996Z,13.00
2022-11-15T14:40:17.195Z,13.00
2022-11-15T14:42:45.953Z,13.00
2022-11-15T14:45:15.578Z,12.90
2022-11-15T14:47:43.219Z,12.90
2022-11-15T14:50:19.601Z,12.90
2022-11-15T14:52:47.124Z,13.10
2022-11-15T14:55:35.249Z,13.00
2022-11-15T14:58:07.935Z,12.90
2022-11-15T15:00:36.218Z,12.90
2022-11-15T15:03:04.004Z,12.80
2022-11-15T15:05:42.408Z,12.70
2022-11-15T15:08:10.173Z,12.70
2022-11-15T15:10:41.482Z,12.70
2022-11-15T15:13:22.206Z,12.70
2022-11-15T15:15:50.185Z,12.60
2022-11-15T15:18:17.768Z,12.60
2022-11-15T15:20:46.756Z,12.70
2022-11-15T15:23:19.095Z,12.70
2022-11-15T15:25:47.311Z,12.50
2022-11-15T15:28:14.081Z,12.70
2022-11-15T15:30:41.360Z,12.70
2022-11-15T15:33:08.021Z,12.50
2022-11-15T15:35:35.881Z,12.40
2022-11-15T15:38:02.692Z,12.60
2022-11-15T15:40:31.532Z,12.50
2022-11-15T15:42:58.398Z,12.40
2022-11-15T15:45:26.804Z,12.30
2022-11-15T15:47:54.104Z,12.30
2022-11-15T15:50:23.881Z,12.30
2022-11-15T15:52:55.970Z,12.20
2022-11-15T15:55:22.918Z,12.20
2022-11-15T15:57:50.289Z,12.40
2022-11-15T16:00:17.811Z,12.20
2022-11-15T16:02:44.928Z,12.00
2022-11-15T16:05:13.171Z,12.00
2022-11-15T16:07:41.012Z,12.10
2022-11-15T16:10:16.737Z,11.90
2022-11-15T16:12:43.697Z,11.90
2022-11-15T16:15:10.616Z,11.70
2022-11-15T16:17:43.039Z,11.70
2022-11-15T16:20:50.891Z,11.60
2022-11-15T16:23:20.513Z,11.50
2022-11-15T16:25:52.829Z,11.40
2022-11-15T16:28:29.609Z,11.40
2022-11-15T16:31:09.654Z,11.40
2022-11-15T16:33:37.512Z,11.80
2022-11-15T16:36:06.815Z,12.00
2022-11-15T16:38:34.088Z,12.00
2022-11-15T16:41:01.085Z,11.80
2022-11-15T16:43:28.170Z,11.70
2022-11-15T16:45:55.152Z,11.70
2022-11-15T16:48:27.394Z,11.70
2022-11-15T16:50:57.236Z,11.80
2022-11-15T16:53:24.807Z,12.00
2022-11-15T16:55:51.666Z,12.00
2022-11-15T16:58:18.359Z,11.80
2022-11-15T17:00:45.166Z,11.70
2022-11-15T17:03:12.034Z,11.60
2022-11-15T17:05:38.737Z,11.60
2022-11-15T17:08:06.401Z,11.60
2022-11-15T17:10:33.115Z,11.50
2022-11-15T17:12:59.770Z,11.40
2022-11-15T17:15:26.409Z,11.30
2022-11-15T17:17:54.415Z,11.20
2022-11-15T17:20:23.652Z,11.30
2022-11-15T17:22:50.370Z,11.30
2022-11-15T17:25:17.152Z,11.30
2022-11-15T17:27:43.864Z,11.00
2022-11-15T17:30:13.086Z,10.90
2022-11-15T17:32:39.813Z,11.00
2022-11-15T17:35:15.134Z,10.90
2022-11-15T17:37:42.786Z,11.00
2022-11-15T17:40:10.201Z,11.00
2022-11-15T17:42:37.060Z,11.10
2022-11-15T17:45:09.370Z,11.10
2022-11-15T17:47:37.160Z,11.10
2022-11-15T17:50:04.352Z,10.80
2022-11-15T17:52:31.124Z,10.90
2022-11-15T17:54:57.933Z,10.80
2022-11-15T17:57:24.577Z,10.80
2022-11-15T17:59:51.226Z,10.90
2022-11-15T18:02:18.175Z,11.00
2022-11-15T18:04:44.964Z,10.80
2022-11-15T18:07:13.755Z,10.80
2022-11-15T18:09:43.626Z,10.90
2022-11-15T18:12:11.597Z,10.90
2022-11-15T18:14:38.360Z,10.80
2022-11-15T18:17:05.028Z,10.60
2022-11-15T18:19:31.747Z,10.60
2022-11-15T18:22:01.676Z,10.60
2022-11-15T18:24:34.686Z,10.70
2022-11-15T18:27:03.030Z,10.90
2022-11-15T18:29:30.024Z,10.90
2022-11-15T18:31:57.360Z,10.70
2022-11-15T18:34:25.737Z,10.90
2022-11-15T18:36:53.529Z,10.90
2022-11-15T18:39:20.962Z,11.10
2022-11-15T18:41:48.580Z,10.90
2022-11-15T18:44:16.232Z,10.80
2022-11-15T18:46:44.933Z,10.70
2022-11-15T18:49:13.587Z,10.70
2022-11-15T18:51:41.962Z,10.70
2022-11-15T18:54:10.990Z,10.90
2022-11-15T18:56:38.194Z,11.00
2022-11-15T18:59:05.366Z,11.20
2022-11-15T19:01:37.650Z,11.10
2022-11-15T19:04:11.637Z,11.10
2022-11-15T19:06:43.119Z,10.90
2022-11-15T19:09:11.535Z,10.90
2022-11-15T19:11:39.970Z,10.90
2022-11-15T19:14:12.170Z,10.70
2022-11-15T19:16:54.569Z,10.60
2022-11-15T19:19:24.432Z,10.60
2022-11-15T19:21:52.371Z,10.60
2022-11-15T19:24:19.193Z,10.60
2022-11-15T19:26:46.885Z,10.60
2022-11-15T19:29:14.097Z,10.50
2022-11-15T19:31:41.648Z,10.50
2022-11-15T19:34:08.804Z,10.60
2022-11-15T19:36:40.352Z,10.50
2022-11-15T19:39:10.147Z,10.50
2022-11-15T19:41:38.541Z,10.80
2022-11-15T19:44:06.532Z,10.90
2022-11-15T19:46:33.508Z,11.00
2022-11-15T19:49:00.322Z,11.00
2022-11-15T19:51:30.220Z,11.20
2022-11-15T19:54:01.225Z,11.10
2022-11-15T19:56:27.954Z,11.10
2022-11-15T19:58:56.018Z,11.10
2022-11-15T20:01:28.177Z,11.10
2022-11-15T20:03:57.723Z,11.20
2022-11-15T20:06:30.143Z,11.30
2022-11-15T20:08:57.766Z,11.30
2022-11-15T20:11:25.844Z,11.20
2022-11-15T20:13:57.223Z,11.20
2022-11-15T20:16:24.634Z,11.20
2022-11-15T20:18:52.930Z,11.20
2022-11-15T20:21:20.264Z,11.20
2022-11-15T20:23:47.990Z,11.10
2022-11-15T20:26:15.795Z,11.10
2022-11-15T20:28:44.311Z,11.20
2022-11-15T20:31:11.873Z,11.20
2022-11-15T20:33:38.570Z,11.20
2022-11-15T20:36:11.440Z,11.20
2022-11-15T20:38:38.458Z,11.40
2022-11-15T20:41:05.641Z,11.60
2022-11-15T20:43:32.533Z,11.50
2022-11-15T20:45:59.232Z,11.30
2022-11-15T20:48:26.145Z,11.20
2022-11-15T20:51:08.964Z,11.10
2022-11-15T20:53:35.964Z,11.10
2022-11-15T20:56:07.534Z,11.10
2022-11-15T20:58:36.207Z,11.00
2022-11-15T21:01:07.965Z,11.10
2022-11-15T21:03:35.502Z,11.10
2022-11-15T21:06:02.536Z,11.00
2022-11-15T21:08:49.814Z,11.10
2022-11-15T21:11:35.030Z,11.10
2022-11-15T21:14:06.319Z,11.00
2022-11-15T21:16:35.660Z,11.00
2022-11-15T21:19:02.304Z,11.00
2022-11-15T21:21:29.406Z,11.00
2022-11-15T21:23:56.111Z,11.00
2022-11-15T21:26:22.910Z,10.90
2022-11-15T21:28:49.685Z,11.00
2022-11-15T21:31:16.468Z,11.00
2022-11-15T21:33:43.208Z,10.90
2022-11-15T21:36:09.951Z,10.90
2022-11-15T21:38:36.861Z,10.90
2022-11-15T21:41:04.255Z,10.80
2022-11-15T21:43:31.000Z,11.00
2022-11-15T21:46:02.881Z,10.90
2022-11-15T21:48:31.757Z,11.00
2022-11-15T21:51:00.801Z,11.20
2022-11-15T21:53:28.335Z,11.20
2022-11-15T21:55:55.193Z,11.00
2022-11-15T21:58:22.472Z,11.10
2022-11-15T22:01:08.782Z,10.90
2022-11-15T22:03:35.949Z,10.80
2022-11-15T22:06:02.821Z,10.70
2022-11-15T22:08:31.233Z,10.70
2022-11-15T22:10:58.539Z,10.80
2022-11-15T22:13:26.239Z,10.80
2022-11-15T22:15:56.577Z,10.70
2022-11-15T22:18:26.712Z,10.80
2022-11-15T22:21:01.599Z,10.80
2022-11-15T22:23:30.667Z,10.70
2022-11-15T22:25:57.588Z,10.70
2022-11-15T22:28:24.510Z,10.80
2022-11-15T22:30:53.308Z,10.80
2022-11-15T22:33:22.751Z,10.90
2022-11-15T22:35:49.774Z,10.90
2022-11-15T22:38:16.563Z,10.80
2022-11-15T22:40:44.110Z,10.70
2022-11-15T22:43:13.164Z,10.80
2022-11-15T22:45:50.317Z,10.70
2022-11-15T22:48:17.907Z,10.90
2022-11-15T22:50:45.285Z,11.00
2022-11-15T22:53:12.042Z,10.70
2022-11-15T22:55:40.039Z,10.60
2022-11-15T22:58:08.529Z,10.70
2022-11-15T23:00:35.968Z,10.60
2022-11-15T23:03:03.349Z,10.50
2022-11-15T23:05:30.042Z,10.50
2022-11-15T23:07:56.707Z,10.80
2022-11-15T23:10:42.000Z,10.60
2022-11-15T23:13:17.798Z,10.60
2022-11-15T23:16:06.670Z,10.70
2022-11-15T23:18:38.870Z,10.40
2022-11-15T23:21:13.506Z,10.30
2022-11-15T23:23:40.722Z,10.30
2022-11-15T23:26:07.825Z,10.30
2022-11-15T23:28:35.348Z,10.40
2022-11-15T23:31:25.737Z,10.50
2022-11-15T23:33:58.627Z,10.50
2022-11-15T23:36:27.239Z,10.50
2022-11-15T23:38:53.988Z,10.50
2022-11-15T23:41:22.030Z,10.60
2022-11-15T23:43:48.935Z,10.70
2022-11-15T23:46:15.893Z,10.70
2022-11-15T23:48:42.741Z,10.60
2022-11-15T23:51:09.882Z,10.50
2022-11-15T23:53:36.779Z,10.50
2022-11-15T23:56:07.450Z,10.60
2022-11-15T23:58:34.673Z,10.60
